sensor_id;sensor_type;location;lat;lon;timestamp;P1;durP1;ratioP1;P2;durP2;ratioP2
58196;SDS011;43999;51.660;5.616;2023-10-09T00:00:54;44.88;;;30.00;;
58196;SDS011;43999;51.660;5.616;2023-10-09T00:03:48;50.60;;;29.10;;
58196;SDS011;43999;51.660;5.616;2023-10-09T00:06:40;55.30;;;31.30;;
58196;SDS011;43999;51.660;5.616;2023-10-09T00:09:29;58.15;;;32.85;;
58196;SDS011;43999;51.660;5.616;2023-10-09T00:12:19;46.58;;;29.40;;
58196;SDS011;43999;51.660;5.616;2023-10-09T00:15:12;58.38;;;34.17;;
58196;SDS011;43999;51.660;5.616;2023-10-09T00:18:00;57.15;;;32.30;;
58196;SDS011;43999;51.660;5.616;2023-10-09T00:20:59;59.85;;;33.67;;
58196;SDS011;43999;51.660;5.616;2023-10-09T00:23:59;58.95;;;30.42;;
58196;SDS011;43999;51.660;5.616;2023-10-09T00:26:53;58.15;;;32.75;;
58196;SDS011;43999;51.660;5.616;2023-10-09T00:30:00;56.80;;;31.65;;
58196;SDS011;43999;51.660;5.616;2023-10-09T00:32:50;56.75;;;34.03;;
58196;SDS011;43999;51.660;5.616;2023-10-09T00:35:54;56.83;;;31.02;;
58196;SDS011;43999;51.660;5.616;2023-10-09T00:38:43;58.45;;;31.73;;
58196;SDS011;43999;51.660;5.616;2023-10-09T00:41:38;49.90;;;33.05;;
58196;SDS011;43999;51.660;5.616;2023-10-09T00:44:28;40.10;;;30.45;;
58196;SDS011;43999;51.660;5.616;2023-10-09T00:47:24;48.17;;;34.58;;
58196;SDS011;43999;51.660;5.616;2023-10-09T00:50:21;34.78;;;27.60;;
58196;SDS011;43999;51.660;5.616;2023-10-09T00:53:11;36.15;;;30.35;;
58196;SDS011;43999;51.660;5.616;2023-10-09T00:56:05;39.97;;;32.22;;
58196;SDS011;43999;51.660;5.616;2023-10-09T00:59:09;38.72;;;30.05;;
58196;SDS011;43999;51.660;5.616;2023-10-09T01:02:04;37.22;;;28.73;;
58196;SDS011;43999;51.660;5.616;2023-10-09T01:04:54;35.45;;;29.98;;
58196;SDS011;43999;51.660;5.616;2023-10-09T01:07:43;34.50;;;29.38;;
58196;SDS011;43999;51.660;5.616;2023-10-09T01:10:45;32.70;;;29.13;;
58196;SDS011;43999;51.660;5.616;2023-10-09T01:13:52;35.38;;;28.55;;
58196;SDS011;43999;51.660;5.616;2023-10-09T01:16:40;31.35;;;27.00;;
58196;SDS011;43999;51.660;5.616;2023-10-09T01:19:29;34.10;;;29.95;;
58196;SDS011;43999;51.660;5.616;2023-10-09T01:22:20;33.42;;;25.83;;
58196;SDS011;43999;51.660;5.616;2023-10-09T01:25:08;32.30;;;26.90;;
58196;SDS011;43999;51.660;5.616;2023-10-09T01:27:57;30.60;;;27.00;;
58196;SDS011;43999;51.660;5.616;2023-10-09T01:30:45;31.27;;;28.00;;
58196;SDS011;43999;51.660;5.616;2023-10-09T01:33:34;31.25;;;26.42;;
58196;SDS011;43999;51.660;5.616;2023-10-09T01:36:23;33.30;;;27.20;;
58196;SDS011;43999;51.660;5.616;2023-10-09T01:39:21;33.75;;;26.58;;
58196;SDS011;43999;51.660;5.616;2023-10-09T01:42:11;28.75;;;25.77;;
58196;SDS011;43999;51.660;5.616;2023-10-09T01:45:10;27.58;;;24.75;;
58196;SDS011;43999;51.660;5.616;2023-10-09T01:48:05;29.70;;;26.38;;
58196;SDS011;43999;51.660;5.616;2023-10-09T01:50:56;25.95;;;23.27;;
58196;SDS011;43999;51.660;5.616;2023-10-09T01:53:45;24.65;;;22.02;;
58196;SDS011;43999;51.660;5.616;2023-10-09T01:56:42;27.27;;;24.38;;
58196;SDS011;43999;51.660;5.616;2023-10-09T01:59:34;25.63;;;22.95;;
58196;SDS011;43999;51.660;5.616;2023-10-09T02:02:25;29.55;;;26.40;;
58196;SDS011;43999;51.660;5.616;2023-10-09T02:05:14;25.40;;;22.85;;
58196;SDS011;43999;51.660;5.616;2023-10-09T02:08:03;28.35;;;25.45;;
58196;SDS011;43999;51.660;5.616;2023-10-09T02:10:55;28.98;;;23.52;;
58196;SDS011;43999;51.660;5.616;2023-10-09T02:13:45;25.98;;;23.42;;
58196;SDS011;43999;51.660;5.616;2023-10-09T02:16:40;24.58;;;22.08;;
58196;SDS011;43999;51.660;5.616;2023-10-09T02:19:31;25.08;;;21.83;;
58196;SDS011;43999;51.660;5.616;2023-10-09T02:22:26;28.48;;;22.35;;
58196;SDS011;43999;51.660;5.616;2023-10-09T02:25:14;23.98;;;19.38;;
58196;SDS011;43999;51.660;5.616;2023-10-09T02:28:07;24.23;;;21.73;;
58196;SDS011;43999;51.660;5.616;2023-10-09T02:31:11;28.77;;;22.80;;
58196;SDS011;43999;51.660;5.616;2023-10-09T02:34:00;24.48;;;21.98;;
58196;SDS011;43999;51.660;5.616;2023-10-09T02:36:55;25.67;;;22.88;;
58196;SDS011;43999;51.660;5.616;2023-10-09T02:39:52;25.63;;;22.55;;
58196;SDS011;43999;51.660;5.616;2023-10-09T02:42:42;27.10;;;23.75;;
58196;SDS011;43999;51.660;5.616;2023-10-09T02:45:32;24.38;;;20.60;;
58196;SDS011;43999;51.660;5.616;2023-10-09T02:48:25;27.17;;;22.20;;
58196;SDS011;43999;51.660;5.616;2023-10-09T02:51:13;27.40;;;24.55;;
58196;SDS011;43999;51.660;5.616;2023-10-09T02:54:17;26.23;;;22.70;;
58196;SDS011;43999;51.660;5.616;2023-10-09T02:57:09;24.30;;;21.67;;
58196;SDS011;43999;51.660;5.616;2023-10-09T03:00:08;24.40;;;21.73;;
58196;SDS011;43999;51.660;5.616;2023-10-09T03:03:05;27.50;;;23.75;;
58196;SDS011;43999;51.660;5.616;2023-10-09T03:05:55;25.27;;;21.73;;
58196;SDS011;43999;51.660;5.616;2023-10-09T03:08:43;26.30;;;23.42;;
58196;SDS011;43999;51.660;5.616;2023-10-09T03:11:34;26.38;;;23.58;;
58196;SDS011;43999;51.660;5.616;2023-10-09T03:14:26;25.40;;;22.67;;
58196;SDS011;43999;51.660;5.616;2023-10-09T03:17:21;26.23;;;23.17;;
58196;SDS011;43999;51.660;5.616;2023-10-09T03:20:09;26.75;;;23.90;;
58196;SDS011;43999;51.660;5.616;2023-10-09T03:23:00;28.45;;;25.42;;
58196;SDS011;43999;51.660;5.616;2023-10-09T03:25:50;26.70;;;22.35;;
58196;SDS011;43999;51.660;5.616;2023-10-09T03:28:46;26.75;;;23.70;;
58196;SDS011;43999;51.660;5.616;2023-10-09T03:31:38;27.13;;;24.10;;
58196;SDS011;43999;51.660;5.616;2023-10-09T03:34:30;29.02;;;23.95;;
58196;SDS011;43999;51.660;5.616;2023-10-09T03:37:18;26.65;;;23.92;;
58196;SDS011;43999;51.660;5.616;2023-10-09T03:40:20;28.00;;;23.17;;
58196;SDS011;43999;51.660;5.616;2023-10-09T03:43:11;27.27;;;22.85;;
58196;SDS011;43999;51.660;5.616;2023-10-09T03:46:00;26.40;;;23.65;;
58196;SDS011;43999;51.660;5.616;2023-10-09T03:48:50;26.02;;;23.23;;
58196;SDS011;43999;51.660;5.616;2023-10-09T03:51:43;27.35;;;23.52;;
58196;SDS011;43999;51.660;5.616;2023-10-09T03:54:32;25.20;;;22.80;;
58196;SDS011;43999;51.660;5.616;2023-10-09T03:57:22;26.27;;;23.55;;
58196;SDS011;43999;51.660;5.616;2023-10-09T04:00:13;27.77;;;23.83;;
58196;SDS011;43999;51.660;5.616;2023-10-09T04:03:03;28.27;;;23.85;;
58196;SDS011;43999;51.660;5.616;2023-10-09T04:05:53;26.60;;;23.95;;
58196;SDS011;43999;51.660;5.616;2023-10-09T04:08:41;26.75;;;23.85;;
58196;SDS011;43999;51.660;5.616;2023-10-09T04:11:35;26.05;;;23.35;;
58196;SDS011;43999;51.660;5.616;2023-10-09T04:14:24;25.40;;;22.83;;
58196;SDS011;43999;51.660;5.616;2023-10-09T04:17:19;25.25;;;22.42;;
58196;SDS011;43999;51.660;5.616;2023-10-09T04:20:20;27.35;;;24.45;;
58196;SDS011;43999;51.660;5.616;2023-10-09T04:23:09;28.10;;;21.55;;
58196;SDS011;43999;51.660;5.616;2023-10-09T04:26:03;31.33;;;24.92;;
58196;SDS011;43999;51.660;5.616;2023-10-09T04:29:01;27.67;;;23.40;;
58196;SDS011;43999;51.660;5.616;2023-10-09T04:31:55;24.83;;;22.33;;
58196;SDS011;43999;51.660;5.616;2023-10-09T04:34:47;26.40;;;23.38;;
58196;SDS011;43999;51.660;5.616;2023-10-09T04:37:35;30.17;;;23.85;;
58196;SDS011;43999;51.660;5.616;2023-10-09T04:40:23;30.75;;;24.77;;
58196;SDS011;43999;51.660;5.616;2023-10-09T04:43:42;28.30;;;25.30;;
58196;SDS011;43999;51.660;5.616;2023-10-09T04:46:31;27.52;;;24.52;;
58196;SDS011;43999;51.660;5.616;2023-10-09T04:49:30;28.42;;;25.30;;
58196;SDS011;43999;51.660;5.616;2023-10-09T04:52:50;28.27;;;25.38;;
58196;SDS011;43999;51.660;5.616;2023-10-09T04:55:40;31.50;;;25.38;;
58196;SDS011;43999;51.660;5.616;2023-10-09T04:58:41;29.75;;;26.30;;
58196;SDS011;43999;51.660;5.616;2023-10-09T05:01:49;26.50;;;23.70;;
58196;SDS011;43999;51.660;5.616;2023-10-09T05:04:52;27.63;;;24.73;;
58196;SDS011;43999;51.660;5.616;2023-10-09T05:08:00;26.00;;;23.13;;
58196;SDS011;43999;51.660;5.616;2023-10-09T05:11:05;27.67;;;24.55;;
58196;SDS011;43999;51.660;5.616;2023-10-09T05:14:05;29.02;;;26.23;;
58196;SDS011;43999;51.660;5.616;2023-10-09T05:16:58;31.88;;;25.00;;
58196;SDS011;43999;51.660;5.616;2023-10-09T05:19:50;28.23;;;25.35;;
58196;SDS011;43999;51.660;5.616;2023-10-09T05:22:47;28.87;;;25.07;;
58196;SDS011;43999;51.660;5.616;2023-10-09T05:25:46;26.83;;;24.00;;
58196;SDS011;43999;51.660;5.616;2023-10-09T05:28:40;26.45;;;23.20;;
58196;SDS011;43999;51.660;5.616;2023-10-09T05:31:41;27.80;;;24.67;;
58196;SDS011;43999;51.660;5.616;2023-10-09T05:34:51;27.88;;;24.06;;
58196;SDS011;43999;51.660;5.616;2023-10-09T05:37:48;29.38;;;23.73;;
58196;SDS011;43999;51.660;5.616;2023-10-09T05:40:50;27.90;;;24.55;;
58196;SDS011;43999;51.660;5.616;2023-10-09T05:43:51;27.08;;;24.30;;
58196;SDS011;43999;51.660;5.616;2023-10-09T05:46:58;31.20;;;28.02;;
58196;SDS011;43999;51.660;5.616;2023-10-09T05:50:05;26.27;;;23.48;;
58196;SDS011;43999;51.660;5.616;2023-10-09T05:53:07;23.30;;;20.45;;
58196;SDS011;43999;51.660;5.616;2023-10-09T05:56:03;26.45;;;23.52;;
58196;SDS011;43999;51.660;5.616;2023-10-09T05:59:10;28.60;;;25.58;;
58196;SDS011;43999;51.660;5.616;2023-10-09T06:02:18;30.60;;;27.23;;
58196;SDS011;43999;51.660;5.616;2023-10-09T06:05:37;28.00;;;23.70;;
58196;SDS011;43999;51.660;5.616;2023-10-09T06:08:29;25.00;;;22.33;;
58196;SDS011;43999;51.660;5.616;2023-10-09T06:11:27;30.13;;;26.08;;
58196;SDS011;43999;51.660;5.616;2023-10-09T06:14:24;29.05;;;24.60;;
58196;SDS011;43999;51.660;5.616;2023-10-09T06:17:12;28.85;;;25.48;;
58196;SDS011;43999;51.660;5.616;2023-10-09T06:20:00;28.10;;;25.10;;
58196;SDS011;43999;51.660;5.616;2023-10-09T06:23:08;31.35;;;23.88;;
58196;SDS011;43999;51.660;5.616;2023-10-09T06:26:10;27.10;;;24.17;;
58196;SDS011;43999;51.660;5.616;2023-10-09T06:29:10;39.65;;;25.40;;
58196;SDS011;43999;51.660;5.616;2023-10-09T06:32:02;27.17;;;24.60;;
58196;SDS011;43999;51.660;5.616;2023-10-09T06:35:06;28.88;;;25.77;;
58196;SDS011;43999;51.660;5.616;2023-10-09T06:38:17;26.52;;;23.75;;
58196;SDS011;43999;51.660;5.616;2023-10-09T06:41:10;26.63;;;23.88;;
58196;SDS011;43999;51.660;5.616;2023-10-09T06:44:21;31.00;;;26.92;;
58196;SDS011;43999;51.660;5.616;2023-10-09T06:47:29;32.38;;;27.33;;
58196;SDS011;43999;51.660;5.616;2023-10-09T06:50:23;30.70;;;24.73;;
58196;SDS011;43999;51.660;5.616;2023-10-09T06:53:11;30.58;;;27.25;;
58196;SDS011;43999;51.660;5.616;2023-10-09T06:55:59;31.05;;;26.17;;
58196;SDS011;43999;51.660;5.616;2023-10-09T06:58:53;30.80;;;24.88;;
58196;SDS011;43999;51.660;5.616;2023-10-09T07:02:11;32.20;;;25.75;;
58196;SDS011;43999;51.660;5.616;2023-10-09T07:05:14;29.55;;;26.50;;
58196;SDS011;43999;51.660;5.616;2023-10-09T07:08:05;27.67;;;24.85;;
58196;SDS011;43999;51.660;5.616;2023-10-09T07:11:13;31.17;;;26.27;;
58196;SDS011;43999;51.660;5.616;2023-10-09T07:14:23;28.63;;;25.20;;
58196;SDS011;43999;51.660;5.616;2023-10-09T07:20:09;27.58;;;23.95;;
58196;SDS011;43999;51.660;5.616;2023-10-09T07:23:02;29.27;;;25.65;;
58196;SDS011;43999;51.660;5.616;2023-10-09T07:26:04;31.58;;;26.60;;
58196;SDS011;43999;51.660;5.616;2023-10-09T07:29:05;30.73;;;27.60;;
58196;SDS011;43999;51.660;5.616;2023-10-09T07:32:09;29.20;;;24.67;;
58196;SDS011;43999;51.660;5.616;2023-10-09T07:38:18;27.63;;;24.83;;
58196;SDS011;43999;51.660;5.616;2023-10-09T07:41:10;31.40;;;26.30;;
58196;SDS011;43999;51.660;5.616;2023-10-09T07:43:59;29.17;;;26.23;;
58196;SDS011;43999;51.660;5.616;2023-10-09T07:47:05;31.60;;;26.67;;
58196;SDS011;43999;51.660;5.616;2023-10-09T07:50:12;32.17;;;28.92;;
58196;SDS011;43999;51.660;5.616;2023-10-09T07:53:12;35.45;;;25.83;;
58196;SDS011;43999;51.660;5.616;2023-10-09T07:56:12;28.02;;;25.15;;
58196;SDS011;43999;51.660;5.616;2023-10-09T07:59:07;34.38;;;29.40;;
58196;SDS011;43999;51.660;5.616;2023-10-09T08:02:00;32.65;;;28.08;;
58196;SDS011;43999;51.660;5.616;2023-10-09T08:04:52;30.77;;;26.83;;
58196;SDS011;43999;51.660;5.616;2023-10-09T08:07:40;35.53;;;28.33;;
58196;SDS011;43999;51.660;5.616;2023-10-09T08:10:53;32.00;;;28.58;;
58196;SDS011;43999;51.660;5.616;2023-10-09T08:14:06;29.38;;;26.25;;
58196;SDS011;43999;51.660;5.616;2023-10-09T08:17:09;29.80;;;26.48;;
58196;SDS011;43999;51.660;5.616;2023-10-09T08:20:08;31.30;;;27.13;;
58196;SDS011;43999;51.660;5.616;2023-10-09T08:22:58;30.90;;;27.27;;
58196;SDS011;43999;51.660;5.616;2023-10-09T08:25:51;29.08;;;26.05;;
58196;SDS011;43999;51.660;5.616;2023-10-09T08:28:57;29.45;;;26.40;;
58196;SDS011;43999;51.660;5.616;2023-10-09T08:32:04;34.47;;;30.75;;
58196;SDS011;43999;51.660;5.616;2023-10-09T08:35:25;29.33;;;25.55;;
58196;SDS011;43999;51.660;5.616;2023-10-09T08:38:35;29.60;;;25.75;;
58196;SDS011;43999;51.660;5.616;2023-10-09T08:41:23;32.40;;;26.60;;
58196;SDS011;43999;51.660;5.616;2023-10-09T08:44:17;31.67;;;27.40;;
58196;SDS011;43999;51.660;5.616;2023-10-09T08:47:11;30.73;;;24.35;;
58196;SDS011;43999;51.660;5.616;2023-10-09T08:50:00;30.67;;;27.08;;
58196;SDS011;43999;51.660;5.616;2023-10-09T08:52:57;28.20;;;25.42;;
58196;SDS011;43999;51.660;5.616;2023-10-09T08:55:45;30.08;;;26.20;;
58196;SDS011;43999;51.660;5.616;2023-10-09T08:58:35;28.38;;;25.10;;
58196;SDS011;43999;51.660;5.616;2023-10-09T09:01:27;29.15;;;26.20;;
58196;SDS011;43999;51.660;5.616;2023-10-09T09:04:33;31.27;;;28.27;;
58196;SDS011;43999;51.660;5.616;2023-10-09T09:07:24;26.35;;;23.75;;
58196;SDS011;43999;51.660;5.616;2023-10-09T09:10:18;30.20;;;24.90;;
58196;SDS011;43999;51.660;5.616;2023-10-09T09:13:35;28.48;;;25.52;;
58196;SDS011;43999;51.660;5.616;2023-10-09T09:16:23;28.83;;;26.00;;
58196;SDS011;43999;51.660;5.616;2023-10-09T09:19:19;29.88;;;26.77;;
58196;SDS011;43999;51.660;5.616;2023-10-09T09:22:19;29.58;;;25.95;;
58196;SDS011;43999;51.660;5.616;2023-10-09T09:25:08;31.00;;;27.67;;
58196;SDS011;43999;51.660;5.616;2023-10-09T09:27:57;31.50;;;28.33;;
58196;SDS011;43999;51.660;5.616;2023-10-09T09:31:08;30.25;;;27.00;;
58196;SDS011;43999;51.660;5.616;2023-10-09T09:34:02;28.75;;;25.88;;
58196;SDS011;43999;51.660;5.616;2023-10-09T09:37:00;28.60;;;25.58;;
58196;SDS011;43999;51.660;5.616;2023-10-09T09:39:52;30.63;;;27.10;;
58196;SDS011;43999;51.660;5.616;2023-10-09T09:42:45;28.30;;;25.45;;
58196;SDS011;43999;51.660;5.616;2023-10-09T09:45:36;31.58;;;28.25;;
58196;SDS011;43999;51.660;5.616;2023-10-09T09:48:37;35.88;;;27.30;;
58196;SDS011;43999;51.660;5.616;2023-10-09T09:51:29;28.45;;;25.13;;
58196;SDS011;43999;51.660;5.616;2023-10-09T09:54:21;29.58;;;25.30;;
58196;SDS011;43999;51.660;5.616;2023-10-09T09:57:13;29.00;;;25.48;;
58196;SDS011;43999;51.660;5.616;2023-10-09T10:00:13;28.90;;;25.98;;
58196;SDS011;43999;51.660;5.616;2023-10-09T10:03:34;28.95;;;26.00;;
58196;SDS011;43999;51.660;5.616;2023-10-09T10:06:30;28.67;;;25.77;;
58196;SDS011;43999;51.660;5.616;2023-10-09T10:09:34;27.70;;;24.65;;
58196;SDS011;43999;51.660;5.616;2023-10-09T10:12:48;29.73;;;25.73;;
58196;SDS011;43999;51.660;5.616;2023-10-09T10:15:58;27.88;;;25.20;;
58196;SDS011;43999;51.660;5.616;2023-10-09T10:19:08;26.45;;;23.60;;
58196;SDS011;43999;51.660;5.616;2023-10-09T10:22:22;27.73;;;24.88;;
58196;SDS011;43999;51.660;5.616;2023-10-09T10:28:37;28.23;;;25.38;;
58196;SDS011;43999;51.660;5.616;2023-10-09T10:34:55;26.95;;;23.85;;
58196;SDS011;43999;51.660;5.616;2023-10-09T10:37:46;27.75;;;24.95;;
58196;SDS011;43999;51.660;5.616;2023-10-09T10:40:39;28.85;;;25.77;;
58196;SDS011;43999;51.660;5.616;2023-10-09T10:43:44;28.58;;;25.65;;
58196;SDS011;43999;51.660;5.616;2023-10-09T10:46:46;32.92;;;28.02;;
58196;SDS011;43999;51.660;5.616;2023-10-09T10:49:44;28.67;;;25.38;;
58196;SDS011;43999;51.660;5.616;2023-10-09T10:52:39;23.15;;;20.63;;
58196;SDS011;43999;51.660;5.616;2023-10-09T10:55:54;21.67;;;17.20;;
58196;SDS011;43999;51.660;5.616;2023-10-09T10:59:05;23.17;;;17.00;;
58196;SDS011;43999;51.660;5.616;2023-10-09T11:01:59;18.80;;;16.05;;
58196;SDS011;43999;51.660;5.616;2023-10-09T11:04:47;22.13;;;16.25;;
58196;SDS011;43999;51.660;5.616;2023-10-09T11:07:43;22.80;;;16.80;;
58196;SDS011;43999;51.660;5.616;2023-10-09T11:10:45;19.77;;;16.67;;
58196;SDS011;43999;51.660;5.616;2023-10-09T11:13:37;18.48;;;15.82;;
58196;SDS011;43999;51.660;5.616;2023-10-09T11:16:40;18.67;;;16.52;;
58196;SDS011;43999;51.660;5.616;2023-10-09T11:19:30;19.70;;;17.80;;
58196;SDS011;43999;51.660;5.616;2023-10-09T11:22:19;21.45;;;17.02;;
58196;SDS011;43999;51.660;5.616;2023-10-09T11:25:18;18.10;;;16.30;;
58196;SDS011;43999;51.660;5.616;2023-10-09T11:28:19;18.80;;;16.23;;
58196;SDS011;43999;51.660;5.616;2023-10-09T11:31:17;19.52;;;16.95;;
58196;SDS011;43999;51.660;5.616;2023-10-09T11:34:19;20.27;;;17.63;;
58196;SDS011;43999;51.660;5.616;2023-10-09T11:37:26;19.40;;;15.48;;
58196;SDS011;43999;51.660;5.616;2023-10-09T11:40:30;18.98;;;16.88;;
58196;SDS011;43999;51.660;5.616;2023-10-09T11:43:50;15.60;;;13.98;;
58196;SDS011;43999;51.660;5.616;2023-10-09T11:47:17;23.35;;;17.27;;
58196;SDS011;43999;51.660;5.616;2023-10-09T11:50:05;21.73;;;16.65;;
58196;SDS011;43999;51.660;5.616;2023-10-09T11:53:00;19.23;;;15.25;;
58196;SDS011;43999;51.660;5.616;2023-10-09T11:56:04;17.20;;;14.00;;
58196;SDS011;43999;51.660;5.616;2023-10-09T11:59:01;15.40;;;13.68;;
58196;SDS011;43999;51.660;5.616;2023-10-09T12:01:52;17.83;;;13.13;;
58196;SDS011;43999;51.660;5.616;2023-10-09T12:07:46;15.75;;;13.50;;
58196;SDS011;43999;51.660;5.616;2023-10-09T12:10:42;15.88;;;13.27;;
58196;SDS011;43999;51.660;5.616;2023-10-09T12:13:30;15.50;;;13.73;;
58196;SDS011;43999;51.660;5.616;2023-10-09T12:16:20;16.55;;;13.23;;
58196;SDS011;43999;51.660;5.616;2023-10-09T12:19:09;17.90;;;13.63;;
58196;SDS011;43999;51.660;5.616;2023-10-09T12:22:00;16.85;;;13.82;;
58196;SDS011;43999;51.660;5.616;2023-10-09T12:24:51;14.48;;;12.77;;
58196;SDS011;43999;51.660;5.616;2023-10-09T12:27:44;16.95;;;12.95;;
58196;SDS011;43999;51.660;5.616;2023-10-09T12:30:35;15.18;;;12.75;;
58196;SDS011;43999;51.660;5.616;2023-10-09T12:33:37;16.55;;;13.55;;
58196;SDS011;43999;51.660;5.616;2023-10-09T12:36:26;13.70;;;12.27;;
58196;SDS011;43999;51.660;5.616;2023-10-09T12:39:14;16.40;;;13.35;;
58196;SDS011;43999;51.660;5.616;2023-10-09T12:42:06;22.50;;;11.98;;
58196;SDS011;43999;51.660;5.616;2023-10-09T12:44:55;16.17;;;14.52;;
58196;SDS011;43999;51.660;5.616;2023-10-09T12:47:47;15.88;;;14.07;;
58196;SDS011;43999;51.660;5.616;2023-10-09T12:50:40;15.85;;;12.57;;
58196;SDS011;43999;51.660;5.616;2023-10-09T12:53:28;15.25;;;12.95;;
58196;SDS011;43999;51.660;5.616;2023-10-09T12:56:18;14.35;;;12.43;;
58196;SDS011;43999;51.660;5.616;2023-10-09T12:59:13;16.15;;;13.15;;
58196;SDS011;43999;51.660;5.616;2023-10-09T13:02:02;17.27;;;12.63;;
58196;SDS011;43999;51.660;5.616;2023-10-09T13:04:59;14.55;;;12.95;;
58196;SDS011;43999;51.660;5.616;2023-10-09T13:07:47;14.00;;;12.02;;
58196;SDS011;43999;51.660;5.616;2023-10-09T13:10:36;13.82;;;11.82;;
58196;SDS011;43999;51.660;5.616;2023-10-09T13:13:27;17.73;;;14.18;;
58196;SDS011;43999;51.660;5.616;2023-10-09T13:16:34;13.77;;;11.98;;
58196;SDS011;43999;51.660;5.616;2023-10-09T13:19:26;15.90;;;11.88;;
58196;SDS011;43999;51.660;5.616;2023-10-09T13:22:14;13.48;;;12.07;;
58196;SDS011;43999;51.660;5.616;2023-10-09T13:25:03;12.48;;;10.73;;
58196;SDS011;43999;51.660;5.616;2023-10-09T13:28:20;15.05;;;12.27;;
58196;SDS011;43999;51.660;5.616;2023-10-09T13:31:10;13.75;;;10.70;;
58196;SDS011;43999;51.660;5.616;2023-10-09T13:34:01;12.55;;;11.20;;
58196;SDS011;43999;51.660;5.616;2023-10-09T13:36:50;11.90;;;10.48;;
58196;SDS011;43999;51.660;5.616;2023-10-09T13:39:40;12.50;;;9.73;;
58196;SDS011;43999;51.660;5.616;2023-10-09T13:42:39;13.70;;;11.13;;
58196;SDS011;43999;51.660;5.616;2023-10-09T13:45:28;12.23;;;10.43;;
58196;SDS011;43999;51.660;5.616;2023-10-09T13:48:17;13.57;;;10.40;;
58196;SDS011;43999;51.660;5.616;2023-10-09T13:51:08;11.27;;;9.85;;
58196;SDS011;43999;51.660;5.616;2023-10-09T13:54:11;14.63;;;10.75;;
58196;SDS011;43999;51.660;5.616;2023-10-09T13:57:07;15.40;;;10.57;;
58196;SDS011;43999;51.660;5.616;2023-10-09T13:59:57;16.30;;;11.65;;
58196;SDS011;43999;51.660;5.616;2023-10-09T14:02:47;15.85;;;11.75;;
58196;SDS011;43999;51.660;5.616;2023-10-09T14:05:39;12.57;;;10.82;;
58196;SDS011;43999;51.660;5.616;2023-10-09T14:08:41;15.20;;;10.32;;
58196;SDS011;43999;51.660;5.616;2023-10-09T14:11:32;12.75;;;10.90;;
58196;SDS011;43999;51.660;5.616;2023-10-09T14:14:27;11.13;;;10.05;;
58196;SDS011;43999;51.660;5.616;2023-10-09T14:17:18;13.07;;;10.25;;
58196;SDS011;43999;51.660;5.616;2023-10-09T14:20:11;12.38;;;10.73;;
58196;SDS011;43999;51.660;5.616;2023-10-09T14:23:18;15.05;;;11.43;;
58196;SDS011;43999;51.660;5.616;2023-10-09T14:26:09;12.90;;;11.02;;
58196;SDS011;43999;51.660;5.616;2023-10-09T14:29:00;12.15;;;10.18;;
58196;SDS011;43999;51.660;5.616;2023-10-09T14:31:47;15.63;;;11.48;;
58196;SDS011;43999;51.660;5.616;2023-10-09T14:34:47;15.70;;;10.73;;
58196;SDS011;43999;51.660;5.616;2023-10-09T14:37:38;14.07;;;10.00;;
58196;SDS011;43999;51.660;5.616;2023-10-09T14:40:30;14.05;;;8.57;;
58196;SDS011;43999;51.660;5.616;2023-10-09T14:43:19;13.57;;;9.15;;
58196;SDS011;43999;51.660;5.616;2023-10-09T14:46:15;20.10;;;9.95;;
58196;SDS011;43999;51.660;5.616;2023-10-09T14:49:07;14.02;;;10.60;;
58196;SDS011;43999;51.660;5.616;2023-10-09T14:52:00;13.20;;;9.00;;
58196;SDS011;43999;51.660;5.616;2023-10-09T14:54:49;16.52;;;9.43;;
58196;SDS011;43999;51.660;5.616;2023-10-09T14:57:41;11.05;;;9.13;;
58196;SDS011;43999;51.660;5.616;2023-10-09T15:00:32;16.38;;;11.35;;
58196;SDS011;43999;51.660;5.616;2023-10-09T15:03:21;15.40;;;11.90;;
58196;SDS011;43999;51.660;5.616;2023-10-09T15:06:10;18.48;;;10.85;;
58196;SDS011;43999;51.660;5.616;2023-10-09T15:08:58;16.33;;;11.45;;
58196;SDS011;43999;51.660;5.616;2023-10-09T15:12:04;11.35;;;9.35;;
58196;SDS011;43999;51.660;5.616;2023-10-09T15:14:55;16.38;;;10.70;;
58196;SDS011;43999;51.660;5.616;2023-10-09T15:17:45;12.85;;;9.52;;
58196;SDS011;43999;51.660;5.616;2023-10-09T15:20:35;18.02;;;10.30;;
58196;SDS011;43999;51.660;5.616;2023-10-09T15:23:26;12.95;;;10.20;;
58196;SDS011;43999;51.660;5.616;2023-10-09T15:26:14;13.60;;;10.35;;
58196;SDS011;43999;51.660;5.616;2023-10-09T15:29:04;17.85;;;10.90;;
58196;SDS011;43999;51.660;5.616;2023-10-09T15:31:54;13.80;;;10.45;;
58196;SDS011;43999;51.660;5.616;2023-10-09T15:34:48;24.00;;;12.35;;
58196;SDS011;43999;51.660;5.616;2023-10-09T15:37:36;16.83;;;11.27;;
58196;SDS011;43999;51.660;5.616;2023-10-09T15:40:25;16.45;;;11.60;;
58196;SDS011;43999;51.660;5.616;2023-10-09T15:43:15;18.25;;;13.50;;
58196;SDS011;43999;51.660;5.616;2023-10-09T15:46:05;19.67;;;12.35;;
58196;SDS011;43999;51.660;5.616;2023-10-09T15:49:03;17.90;;;12.57;;
58196;SDS011;43999;51.660;5.616;2023-10-09T15:51:54;21.30;;;12.90;;
58196;SDS011;43999;51.660;5.616;2023-10-09T15:54:42;17.50;;;12.13;;
58196;SDS011;43999;51.660;5.616;2023-10-09T15:57:30;17.42;;;11.60;;
58196;SDS011;43999;51.660;5.616;2023-10-09T16:00:21;19.15;;;11.38;;
58196;SDS011;43999;51.660;5.616;2023-10-09T16:03:16;19.75;;;11.60;;
58196;SDS011;43999;51.660;5.616;2023-10-09T16:06:08;15.52;;;10.90;;
58196;SDS011;43999;51.660;5.616;2023-10-09T16:09:02;11.38;;;10.15;;
58196;SDS011;43999;51.660;5.616;2023-10-09T16:11:52;11.88;;;10.63;;
58196;SDS011;43999;51.660;5.616;2023-10-09T16:14:43;13.68;;;10.18;;
58196;SDS011;43999;51.660;5.616;2023-10-09T16:17:34;12.32;;;9.48;;
58196;SDS011;43999;51.660;5.616;2023-10-09T16:23:19;10.98;;;9.65;;
58196;SDS011;43999;51.660;5.616;2023-10-09T16:26:14;15.63;;;11.90;;
58196;SDS011;43999;51.660;5.616;2023-10-09T16:29:06;13.10;;;9.70;;
58196;SDS011;43999;51.660;5.616;2023-10-09T16:31:57;17.02;;;10.75;;
58196;SDS011;43999;51.660;5.616;2023-10-09T16:34:50;13.38;;;10.15;;
58196;SDS011;43999;51.660;5.616;2023-10-09T16:37:43;13.73;;;10.68;;
58196;SDS011;43999;51.660;5.616;2023-10-09T16:40:42;14.30;;;10.75;;
58196;SDS011;43999;51.660;5.616;2023-10-09T16:43:35;23.35;;;11.30;;
58196;SDS011;43999;51.660;5.616;2023-10-09T16:46:24;12.52;;;9.95;;
58196;SDS011;43999;51.660;5.616;2023-10-09T16:49:13;15.43;;;11.90;;
58196;SDS011;43999;51.660;5.616;2023-10-09T16:52:02;16.27;;;10.90;;
58196;SDS011;43999;51.660;5.616;2023-10-09T16:54:58;10.80;;;9.30;;
58196;SDS011;43999;51.660;5.616;2023-10-09T16:57:50;12.88;;;10.35;;
58196;SDS011;43999;51.660;5.616;2023-10-09T17:00:43;13.00;;;11.48;;
58196;SDS011;43999;51.660;5.616;2023-10-09T17:03:33;14.20;;;11.00;;
58196;SDS011;43999;51.660;5.616;2023-10-09T17:06:25;18.45;;;12.05;;
58196;SDS011;43999;51.660;5.616;2023-10-09T17:09:16;15.38;;;11.32;;
58196;SDS011;43999;51.660;5.616;2023-10-09T17:12:08;18.85;;;12.55;;
58196;SDS011;43999;51.660;5.616;2023-10-09T17:14:59;13.95;;;11.25;;
58196;SDS011;43999;51.660;5.616;2023-10-09T17:17:49;16.40;;;11.20;;
58196;SDS011;43999;51.660;5.616;2023-10-09T17:20:40;16.02;;;12.15;;
58196;SDS011;43999;51.660;5.616;2023-10-09T17:23:39;16.92;;;12.55;;